Time;durP1;ratioP1;P1;durP2;ratioP2;P2;SDS_P1;SDS_P2;PMS_P1;PMS_P2;Temp;Humidity;BMP_temperature;BMP_pressure;BME280_temperature;BME280_humidity;BME280_pressure;Samples;Min_cycle;Max_cycle;Signal;HPM_P1;HPM_P2
2023/12/23 00:00:25;;;;;;;8.45;1.98;;;11.40;99.90;;;;;;5081267;28;20199;-88
2023/12/23 00:02:54;;;;;;;11.68;2.88;;;11.20;99.90;;;;;;5073297;28;20051;-88
2023/12/23 00:06:06;;;;;;;10.27;2.22;;;9.30;99.90;;;;;;5078959;28;20024;-88
2023/12/23 00:11:35;;;;;;;;;;;11.30;99.90;;;;;;5047460;28;20033;-88
2023/12/23 00:14:21;;;;;;;;;;;;;;;;;;;;;
2023/12/23 00:16:47;;;;;;;10.43;2.22;;;9.40;99.90;;;;;;5092119;28;20043;-83
2023/12/23 00:19:17;;;;;;;16.58;2.42;;;9.40;99.90;;;;;;5073758;28;20032;-86
2023/12/23 00:21:57;;;;;;;10.88;2.03;;;9.40;99.90;;;;;;5093722;28;20052;-88
2023/12/23 00:24:26;;;;;;;9.25;1.88;;;9.00;99.90;;;;;;5085482;28;20051;-86
2023/12/23 00:27:04;;;;;;;7.47;1.95;;;11.00;99.90;;;;;;5093533;28;20021;-88
2023/12/23 00:29:43;;;;;;;11.85;2.03;;;9.40;99.90;;;;;;5080076;28;20081;-87
2023/12/23 00:32:18;;;;;;;10.98;2.47;;;9.40;99.90;;;;;;5071520;28;20032;-88
2023/12/23 00:34:47;;;;;;;11.55;2.42;;;11.40;99.90;;;;;;5083293;28;20441;-85
2023/12/23 00:37:27;;;;;;;;;;;;;;;;;;;;;
2023/12/23 00:40:06;;;;;;;13.63;2.38;;;11.40;99.90;;;;;;5080467;28;20115;-88
2023/12/23 00:42:39;;;;;;;7.60;2.22;;;9.50;99.90;;;;;;5068390;28;20063;-87
2023/12/23 00:45:06;;;;;;;9.18;2.00;;;9.10;99.90;;;;;;5075958;28;20041;-86
2023/12/23 00:47:42;;;;;;;10.32;3.05;;;9.40;99.90;;;;;;5068308;28;20052;-87
2023/12/23 00:50:35;;;;;;;11.15;1.95;;;9.40;99.90;;;;;;5071044;28;20037;-89
2023/12/23 00:53:10;;;;;;;8.90;1.80;;;9.40;99.90;;;;;;5080260;28;20049;-87
2023/12/23 00:55:45;;;;;;;6.82;1.60;;;10.60;99.90;;;;;;5070430;28;20036;-88
2023/12/23 00:58:19;;;;;;;9.00;1.50;;;9.30;99.90;;;;;;5071439;28;20052;-89
2023/12/23 01:00:48;;;;;;;7.72;1.77;;;9.40;99.90;;;;;;5080044;28;20063;-87
2023/12/23 01:03:34;;;;;;;7.65;2.13;;;9.00;99.90;;;;;;5075164;28;20090;-88
2023/12/23 01:06:07;;;;;;;7.70;1.50;;;9.40;99.90;;;;;;5069430;28;20048;-89
2023/12/23 01:08:33;;;;;;;8.43;2.08;;;9.30;99.90;;;;;;5073312;28;20036;-86
2023/12/23 01:10:59;;;;;;;9.30;1.90;;;9.30;99.90;;;;;;5075300;28;20031;-86
2023/12/23 01:13:25;;;;;;;9.73;1.95;;;11.00;99.90;;;;;;5076261;28;20049;-87
2023/12/23 01:15:51;;;;;;;13.02;2.53;;;10.20;99.90;;;;;;5089955;28;20368;-87
2023/12/23 01:18:33;;;;;;;11.93;2.30;;;11.30;99.90;;;;;;5070306;28;20032;-87
2023/12/23 01:20:59;;;;;;;9.10;2.20;;;9.40;99.90;;;;;;5062331;28;20044;-88
2023/12/23 01:23:30;;;;;;;9.30;2.25;;;10.10;99.90;;;;;;5077859;28;20025;-87
2023/12/23 01:25:56;;;;;;;8.68;2.15;;;9.50;99.90;;;;;;5084880;28;20032;-88
2023/12/23 01:28:22;;;;;;;6.82;1.95;;;9.50;99.90;;;;;;5086965;28;20024;-89
2023/12/23 01:30:48;;;;;;;12.48;3.40;;;9.40;99.90;;;;;;5068901;28;20040;-89
2023/12/23 01:33:14;;;;;;;7.50;1.95;;;9.60;99.90;;;;;;5070299;28;20029;-91
2023/12/23 01:35:46;;;;;;;9.15;1.70;;;9.30;99.90;;;;;;5075120;28;20029;-87
2023/12/23 01:38:14;;;;;;;10.60;1.65;;;9.40;99.90;;;;;;5072187;28;20025;-90
2023/12/23 01:40:44;;;;;;;11.30;2.10;;;9.40;99.90;;;;;;5091085;28;20021;-88
2023/12/23 01:43:09;;;;;;;8.00;1.83;;;9.50;99.90;;;;;;5072075;28;20053;-88
2023/12/23 01:45:39;;;;;;;11.45;2.30;;;9.60;99.90;;;;;;5075701;28;20118;-88
2023/12/23 01:48:06;;;;;;;8.27;1.70;;;10.70;99.90;;;;;;5079514;28;20029;-86
2023/12/23 01:50:32;;;;;;;12.60;2.30;;;7.80;99.90;;;;;;5089653;28;20398;-88
2023/12/23 01:53:17;;;;;;;10.02;1.85;;;9.20;99.90;;;;;;5078091;28;20116;-87
2023/12/23 01:55:43;;;;;;;8.27;1.77;;;9.30;99.90;;;;;;5074540;28;20034;-87
2023/12/23 01:58:08;;;;;;;9.75;1.92;;;11.40;99.90;;;;;;5072634;28;20033;-89
2023/12/23 02:00:37;;;;;;;7.32;2.10;;;9.60;99.90;;;;;;5060421;28;20548;-88
2023/12/23 02:03:03;;;;;;;8.70;1.60;;;9.30;99.90;;;;;;5072448;28;20047;-88
2023/12/23 02:05:30;;;;;;;10.18;2.67;;;9.20;99.90;;;;;;5074128;28;20025;-89
2023/12/23 02:07:58;;;;;;;8.68;1.63;;;9.30;99.90;;;;;;5084788;28;20024;-86
2023/12/23 02:10:27;;;;;;;13.45;3.20;;;8.50;99.90;;;;;;5071636;28;20101;-86
2023/12/23 02:13:09;;;;;;;10.18;2.03;;;10.00;99.90;;;;;;5071146;28;20037;-85
2023/12/23 02:15:37;;;;;;;6.80;2.10;;;9.20;99.90;;;;;;5059823;28;20049;-85
2023/12/23 02:18:03;;;;;;;9.77;1.95;;;9.50;99.90;;;;;;5090009;28;20055;-88
2023/12/23 02:20:29;;;;;;;6.03;1.75;;;9.30;99.90;;;;;;5080235;28;20489;-86
2023/12/23 02:22:58;;;;;;;9.18;1.58;;;9.40;99.90;;;;;;5075234;28;20471;-87
2023/12/23 02:25:24;;;;;;;8.43;2.13;;;10.40;99.90;;;;;;5080147;28;20024;-88
2023/12/23 02:28:06;;;;;;;;;;;;;;;;;;;;;
2023/12/23 02:30:41;;;;;;;8.82;1.77;;;9.00;99.90;;;;;;5077398;28;20123;-87
2023/12/23 02:33:08;;;;;;;5.47;1.70;;;8.50;99.90;;;;;;5078549;28;20160;-89
2023/12/23 02:35:33;;;;;;;7.95;1.55;;;11.30;99.90;;;;;;5081883;28;20056;-89
2023/12/23 02:38:04;;;;;;;10.63;2.28;;;8.50;99.90;;;;;;5077785;28;20037;-89
2023/12/23 02:40:30;;;;;;;8.77;2.00;;;9.30;99.90;;;;;;5076239;28;20021;-89
2023/12/23 02:43:01;;;;;;;8.98;2.05;;;10.00;99.90;;;;;;5075984;28;20047;-89
2023/12/23 02:46:00;;;;;;;11.45;2.10;;;8.20;99.90;;;;;;5082150;28;20406;-88
2023/12/23 02:48:25;;;;;;;10.25;2.17;;;9.60;99.90;;;;;;5068775;28;20028;-87
2023/12/23 02:50:51;;;;;;;9.57;1.83;;;9.30;99.90;;;;;;5077964;28;20021;-90
2023/12/23 02:53:25;;;;;;;10.55;1.98;;;11.20;99.90;;;;;;5072298;28;20067;-85
2023/12/23 02:55:59;;;;;;;9.70;1.90;;;9.30;99.90;;;;;;5077483;28;20052;-90
2023/12/23 02:59:02;;;;;;;14.43;2.65;;;9.40;99.90;;;;;;5072855;28;20035;-88
2023/12/23 03:01:28;;;;;;;11.73;2.70;;;9.30;99.90;;;;;;5057964;28;20036;-86
2023/12/23 03:03:57;;;;;;;10.27;2.55;;;9.40;99.90;;;;;;5075766;28;20021;-88
2023/12/23 03:06:29;;;;;;;9.55;1.80;;;9.40;99.90;;;;;;5070003;28;20040;-88
2023/12/23 03:08:54;;;;;;;13.68;3.17;;;9.20;99.90;;;;;;5072822;28;20130;-89
2023/12/23 03:11:20;;;;;;;9.60;2.72;;;9.40;99.90;;;;;;5070149;28;20120;-88
2023/12/23 03:13:46;;;;;;;10.38;2.63;;;9.40;99.90;;;;;;5069726;28;20032;-88
2023/12/23 03:16:16;;;;;;;9.98;3.78;;;8.10;99.90;;;;;;5053657;28;20032;-88
2023/12/23 03:18:43;;;;;;;8.52;2.92;;;;;;;;;;5077053;28;20029;-87
2023/12/23 03:21:11;;;;;;;8.80;2.50;;;7.50;99.90;;;;;;5080797;28;20021;-88
2023/12/23 03:23:41;;;;;;;13.18;2.90;;;9.30;99.90;;;;;;5071680;28;20044;-86
2023/12/23 03:26:07;;;;;;;6.05;2.10;;;10.80;99.90;;;;;;5080707;28;20043;-87
2023/12/23 03:28:33;;;;;;;7.90;2.90;;;9.20;99.90;;;;;;5078780;28;20033;-88
2023/12/23 03:31:01;;;;;;;9.60;2.53;;;9.20;99.90;;;;;;5075464;28;20021;-88
2023/12/23 03:33:27;;;;;;;10.27;2.40;;;8.60;99.90;;;;;;5076745;28;20032;-89
2023/12/23 03:35:53;;;;;;;9.60;2.63;;;8.20;99.90;;;;;;5081212;28;20078;-87
2023/12/23 03:38:19;;;;;;;10.05;2.58;;;10.30;99.90;;;;;;5083500;28;20027;-87
2023/12/23 03:40:44;;;;;;;10.95;2.63;;;10.80;99.90;;;;;;5079048;28;20021;-88
2023/12/23 03:43:10;;;;;;;11.80;2.55;;;9.20;99.90;;;;;;5078882;28;20052;-86
2023/12/23 03:45:35;;;;;;;8.07;2.42;;;10.90;99.90;;;;;;5074222;28;20160;-87
2023/12/23 03:48:01;;;;;;;12.10;2.63;;;9.50;99.90;;;;;;5091472;28;20037;-88
2023/12/23 03:50:29;;;;;;;10.63;2.63;;;9.30;99.90;;;;;;5086052;28;20096;-87
2023/12/23 03:52:55;;;;;;;9.65;2.08;;;11.00;99.90;;;;;;5082793;28;20039;-87
2023/12/23 03:55:21;;;;;;;8.38;2.30;;;8.50;99.90;;;;;;5086197;28;20020;-87
2023/12/23 03:57:46;;;;;;;8.90;1.98;;;9.30;99.90;;;;;;5078757;28;20009;-87
2023/12/23 04:00:13;;;;;;;9.40;2.28;;;9.10;99.90;;;;;;5074812;28;20051;-86
2023/12/23 04:02:39;;;;;;;10.23;2.40;;;10.60;99.90;;;;;;5083973;28;20025;-88
2023/12/23 04:05:04;;;;;;;9.35;2.25;;;9.00;99.90;;;;;;5088274;28;20120;-85
2023/12/23 04:07:31;;;;;;;8.27;2.40;;;;;;;;;;5084012;28;20107;-89
2023/12/23 04:09:56;;;;;;;7.30;2.13;;;9.10;99.90;;;;;;5084118;28;20115;-87
2023/12/23 04:12:22;;;;;;;9.32;2.05;;;11.70;99.90;;;;;;5089111;28;20051;-90
2023/12/23 04:14:48;;;;;;;14.43;2.78;;;9.50;99.90;;;;;;5104359;28;20048;-87
2023/12/23 04:17:15;;;;;;;12.00;2.47;;;9.10;99.90;;;;;;5079877;28;20009;-87
2023/12/23 04:19:41;;;;;;;5.90;1.67;;;9.10;99.90;;;;;;5079862;28;20028;-85
2023/12/23 04:22:07;;;;;;;9.25;2.17;;;9.10;99.90;;;;;;5077781;28;20025;-87
2023/12/23 04:24:32;;;;;;;6.75;1.73;;;9.00;99.90;;;;;;5091375;28;20035;-85
2023/12/23 04:26:58;;;;;;;6.93;1.65;;;;;;;;;;5081005;28;20178;-86
2023/12/23 04:29:25;;;;;;;5.97;1.65;;;;;;;;;;5080821;28;20024;-87
2023/12/23 04:31:51;;;;;;;7.63;1.80;;;;;;;;;;5071689;28;20025;-87
2023/12/23 04:34:16;;;;;;;7.55;1.80;;;9.20;99.90;;;;;;5077861;28;20029;-86
2023/12/23 04:36:42;;;;;;;11.40;1.90;;;9.10;99.90;;;;;;5074398;28;20204;-84
2023/12/23 04:39:08;;;;;;;11.55;1.92;;;10.00;99.90;;;;;;5079031;28;20139;-86
2023/12/23 04:41:33;;;;;;;6.43;1.83;;;9.30;99.90;;;;;;5082297;28;20025;-86
2023/12/23 04:43:59;;;;;;;10.20;2.13;;;9.80;99.90;;;;;;5079696;28;20531;-87
2023/12/23 04:46:26;;;;;;;7.85;1.80;;;10.70;99.90;;;;;;5092913;28;20052;-86
2023/12/23 04:48:52;;;;;;;10.43;2.08;;;9.00;99.90;;;;;;5085511;28;20045;-89
2023/12/23 04:51:18;;;;;;;7.80;1.60;;;9.00;99.90;;;;;;5072502;28;20033;-88
2023/12/23 04:53:44;;;;;;;7.15;1.67;;;9.00;99.90;;;;;;5068307;28;20037;-86
2023/12/23 04:56:10;;;;;;;7.88;1.80;;;8.90;99.90;;;;;;5074164;28;20025;-88
2023/12/23 04:58:37;;;;;;;4.80;1.65;;;9.50;99.90;;;;;;5078963;28;20036;-87
2023/12/23 05:01:04;;;;;;;8.70;1.50;;;9.00;99.90;;;;;;5092849;28;20032;-88
2023/12/23 05:03:34;;;;;;;5.28;1.52;;;7.80;99.90;;;;;;5078061;28;20074;-86
2023/12/23 05:06:01;;;;;;;4.18;1.30;;;9.90;99.90;;;;;;5083398;28;20008;-88
2023/12/23 05:08:27;;;;;;;5.43;1.60;;;10.20;99.90;;;;;;5072817;28;20100;-87
2023/12/23 05:10:53;;;;;;;8.55;1.88;;;9.20;99.90;;;;;;5081150;28;20071;-89
2023/12/23 05:13:18;;;;;;;8.85;1.58;;;9.40;99.90;;;;;;5090271;28;20039;-87
2023/12/23 05:15:44;;;;;;;7.30;1.55;;;8.30;99.90;;;;;;5073766;28;20503;-90
2023/12/23 05:18:10;;;;;;;6.22;1.75;;;9.20;99.90;;;;;;5077066;28;20028;-88
2023/12/23 05:20:36;;;;;;;7.30;1.75;;;9.50;99.90;;;;;;5074250;28;20032;-90
2023/12/23 05:23:01;;;;;;;5.80;1.40;;;9.00;99.90;;;;;;5066897;28;20028;-89
2023/12/23 05:25:27;;;;;;;10.70;1.60;;;9.20;99.90;;;;;;5073999;28;20084;-86
2023/12/23 05:27:53;;;;;;;9.40;1.80;;;10.40;99.90;;;;;;5075219;28;20043;-87
2023/12/23 05:30:19;;;;;;;10.50;2.38;;;9.20;99.90;;;;;;5077300;28;20050;-84
2023/12/23 05:32:46;;;;;;;6.93;1.58;;;9.20;99.90;;;;;;5099623;28;20523;-89
2023/12/23 05:35:11;;;;;;;7.53;1.80;;;9.20;99.90;;;;;;5078965;28;20021;-87
2023/12/23 05:37:37;;;;;;;6.00;2.20;;;9.20;99.90;;;;;;5077926;28;20035;-88
2023/12/23 05:40:04;;;;;;;5.30;1.63;;;9.10;99.90;;;;;;5076867;28;20036;-91
2023/12/23 05:42:30;;;;;;;4.88;1.67;;;9.20;99.90;;;;;;5085770;28;20056;-87
2023/12/23 05:44:56;;;;;;;6.78;1.77;;;9.30;99.90;;;;;;5074166;28;20027;-88
2023/12/23 05:47:22;;;;;;;6.65;1.42;;;9.70;99.90;;;;;;5079163;28;20035;-89
2023/12/23 05:49:48;;;;;;;7.22;1.77;;;7.90;99.90;;;;;;5087149;28;20032;-88
2023/12/23 05:52:17;;;;;;;7.03;1.58;;;9.10;99.90;;;;;;5084371;28;20044;-87
2023/12/23 05:54:42;;;;;;;6.45;2.35;;;10.10;99.90;;;;;;5081149;28;20037;-84
2023/12/23 05:57:11;;;;;;;9.10;1.52;;;9.20;99.90;;;;;;5081201;28;20021;-88
2023/12/23 05:59:37;;;;;;;6.32;2.10;;;10.80;99.90;;;;;;5068080;28;20028;-90
2023/12/23 06:02:02;;;;;;;6.88;1.60;;;9.80;99.90;;;;;;5069275;28;20617;-86
2023/12/23 06:04:28;;;;;;;7.20;1.60;;;8.70;99.90;;;;;;5090955;28;20033;-89
2023/12/23 06:06:57;;;;;;;4.93;1.60;;;10.50;99.90;;;;;;5084167;28;20024;-88
2023/12/23 06:09:22;;;;;;;4.05;1.30;;;7.70;99.90;;;;;;5078513;28;20028;-88
2023/12/23 06:11:48;;;;;;;4.57;1.60;;;9.10;99.90;;;;;;5074588;28;20056;-89
2023/12/23 06:14:14;;;;;;;4.53;1.52;;;10.00;99.90;;;;;;5077990;28;20074;-88
2023/12/23 06:16:40;;;;;;;7.45;1.35;;;9.30;99.90;;;;;;5076361;28;20054;-87
2023/12/23 06:19:09;;;;;;;4.50;1.63;;;10.50;99.90;;;;;;5077261;28;20020;-88
2023/12/23 06:21:45;;;;;;;4.93;1.60;;;10.20;99.90;;;;;;5072518;28;20090;-88
2023/12/23 06:24:12;;;;;;;3.85;1.50;;;9.10;99.90;;;;;;5078756;28;20032;-88
2023/12/23 06:26:38;;;;;;;4.47;1.55;;;9.10;99.90;;;;;;5073213;28;20111;-89
2023/12/23 06:29:04;;;;;;;4.60;1.60;;;10.70;99.90;;;;;;5077866;28;20037;-88
2023/12/23 06:31:29;;;;;;;5.68;1.88;;;9.80;99.90;;;;;;5078955;28;20028;-87
2023/12/23 06:33:55;;;;;;;8.60;2.63;;;10.90;99.90;;;;;;5076698;28;20029;-86
2023/12/23 06:36:21;;;;;;;4.63;1.60;;;10.20;99.90;;;;;;5094984;28;20070;-89
2023/12/23 06:38:48;;;;;;;7.20;1.45;;;9.00;99.90;;;;;;5096793;28;20044;-88
2023/12/23 06:41:14;;;;;;;4.60;1.48;;;9.20;99.90;;;;;;5074833;28;20025;-88
2023/12/23 06:43:40;;;;;;;6.05;1.63;;;10.70;99.90;;;;;;5070164;28;20067;-87
2023/12/23 06:46:09;;;;;;;6.55;1.42;;;9.00;99.90;;;;;;5084222;28;20033;-88
2023/12/23 06:48:39;;;;;;;6.50;1.80;;;8.50;99.90;;;;;;5079083;28;20105;-88
2023/12/23 06:51:07;;;;;;;6.57;1.40;;;10.70;99.90;;;;;;5090760;28;20287;-88
2023/12/23 06:53:35;;;;;;;7.82;1.52;;;9.20;99.90;;;;;;5082458;28;20028;-89
2023/12/23 06:56:05;;;;;;;3.10;0.88;;;9.10;99.90;;;;;;5081798;28;20028;-87
2023/12/23 06:58:31;;;;;;;6.13;1.65;;;9.30;99.90;;;;;;5075165;28;20032;-87
2023/12/23 07:00:57;;;;;;;4.72;1.13;;;9.10;99.90;;;;;;5079160;28;20087;-87
2023/12/23 07:03:23;;;;;;;3.78;1.10;;;9.00;99.90;;;;;;5081197;28;20035;-88
2023/12/23 07:05:51;;;;;;;3.15;1.15;;;9.80;99.90;;;;;;5077130;28;20145;-86
2023/12/23 07:08:17;;;;;;;4.68;1.20;;;7.80;99.90;;;;;;5086607;28;20040;-88
2023/12/23 07:10:43;;;;;;;4.50;1.13;;;8.90;99.90;;;;;;5078428;28;20064;-87
2023/12/23 07:13:08;;;;;;;5.72;1.45;;;8.80;99.90;;;;;;5092688;28;20057;-89
2023/12/23 07:15:34;;;;;;;4.35;1.33;;;8.90;99.90;;;;;;5084727;28;20157;-87
2023/12/23 07:18:00;;;;;;;5.30;1.40;;;9.60;99.90;;;;;;5088156;28;20107;-89
2023/12/23 07:20:26;;;;;;;4.20;1.30;;;10.50;99.90;;;;;;5072319;28;20032;-87
2023/12/23 07:22:52;;;;;;;5.68;1.40;;;8.80;99.90;;;;;;5070220;28;20038;-87
2023/12/23 07:25:19;;;;;;;5.07;1.17;;;8.90;99.90;;;;;;5092737;28;20035;-88
2023/12/23 07:27:45;;;;;;;4.60;1.15;;;8.70;99.90;;;;;;5082286;28;20017;-87
2023/12/23 07:30:11;;;;;;;6.10;1.40;;;9.10;99.90;;;;;;5081460;28;20032;-88
2023/12/23 07:32:37;;;;;;;4.05;1.00;;;8.90;99.90;;;;;;5075052;28;20112;-89
2023/12/23 07:35:06;;;;;;;3.65;1.00;;;9.00;99.90;;;;;;5085546;28;20294;-89
2023/12/23 07:37:33;;;;;;;6.90;1.90;;;8.70;99.90;;;;;;5079547;28;20036;-88
2023/12/23 07:39:58;;;;;;;3.25;0.88;;;8.70;99.90;;;;;;5085844;28;20039;-86
2023/12/23 07:42:24;;;;;;;4.75;1.00;;;8.80;99.90;;;;;;5077651;28;20029;-89
2023/12/23 07:44:50;;;;;;;2.17;1.00;;;10.70;99.90;;;;;;5074385;28;20029;-89
2023/12/23 07:47:18;;;;;;;2.83;0.90;;;10.70;99.90;;;;;;5070148;28;20059;-87
2023/12/23 07:49:47;;;;;;;3.17;1.00;;;8.60;99.90;;;;;;5089694;28;20033;-88
2023/12/23 07:52:15;;;;;;;1.80;0.80;;;8.60;99.90;;;;;;5068904;28;20037;-88
2023/12/23 07:54:40;;;;;;;3.33;1.02;;;8.90;99.90;;;;;;5085932;28;20028;-89
2023/12/23 07:57:07;;;;;;;2.17;0.80;;;10.00;99.90;;;;;;5107440;28;20027;-87
2023/12/23 07:59:34;;;;;;;1.17;0.70;;;8.60;99.90;;;;;;5085947;28;20020;-86
2023/12/23 08:02:00;;;;;;;1.52;0.90;;;9.20;99.90;;;;;;5073989;28;20020;-88
2023/12/23 08:04:26;;;;;;;1.58;0.90;;;9.20;99.90;;;;;;5081332;28;20092;-89
2023/12/23 08:06:52;;;;;;;1.35;0.80;;;9.00;99.90;;;;;;5092145;28;20020;-89
2023/12/23 08:09:18;;;;;;;2.15;0.82;;;10.90;99.90;;;;;;5084072;28;20024;-88
2023/12/23 08:11:44;;;;;;;0.93;0.60;;;8.80;99.90;;;;;;5079154;28;20054;-89
2023/12/23 08:14:11;;;;;;;2.28;0.70;;;8.80;99.90;;;;;;5100705;28;20024;-88
2023/12/23 08:16:38;;;;;;;1.92;0.57;;;10.10;99.90;;;;;;5083365;28;20020;-87
2023/12/23 08:19:03;;;;;;;1.05;0.60;;;8.70;99.90;;;;;;5093056;28;20037;-86
2023/12/23 08:21:29;;;;;;;3.15;0.98;;;10.50;99.90;;;;;;5073944;28;20050;-87
2023/12/23 08:23:56;;;;;;;2.00;0.60;;;10.00;99.90;;;;;;5085995;28;20021;-88
2023/12/23 08:26:22;;;;;;;1.42;0.60;;;8.70;99.90;;;;;;5092741;28;20028;-89
2023/12/23 08:28:50;;;;;;;2.90;0.60;;;10.30;99.90;;;;;;5086013;28;20016;-89
2023/12/23 08:31:16;;;;;;;0.60;0.60;;;10.50;99.90;;;;;;5090689;28;20028;-88
2023/12/23 08:33:42;;;;;;;1.33;0.50;;;9.80;99.90;;;;;;5079576;28;20032;-89
2023/12/23 08:36:08;;;;;;;3.03;0.80;;;8.80;99.90;;;;;;5102569;28;20013;-88
2023/12/23 08:38:33;;;;;;;1.05;0.60;;;9.40;99.90;;;;;;5090139;28;20021;-90
2023/12/23 08:40:59;;;;;;;1.17;0.47;;;10.00;99.90;;;;;;5099706;28;20100;-88
2023/12/23 08:43:25;;;;;;;0.50;0.43;;;8.80;99.90;;;;;;5081006;28;20029;-89
2023/12/23 08:45:53;;;;;;;1.70;0.73;;;8.80;99.90;;;;;;5085557;28;20035;-91
2023/12/23 08:48:47;;;;;;;1.88;0.60;;;10.50;99.90;;;;;;5080742;28;20020;-88
2023/12/23 08:51:16;;;;;;;0.90;0.70;;;8.80;99.90;;;;;;5074047;28;20071;-88
2023/12/23 08:53:43;;;;;;;1.92;0.90;;;8.70;99.90;;;;;;5123213;22;20057;-87
2023/12/23 08:56:09;;;;;;;3.05;1.05;;;8.80;99.90;;;;;;5064467;28;20029;-90
2023/12/23 08:58:41;;;;;;;1.55;0.80;;;8.70;99.90;;;;;;5082405;28;20116;-86
2023/12/23 09:01:09;;;;;;;1.48;0.90;;;7.40;99.90;;;;;;5067448;28;20017;-86
2023/12/23 09:03:35;;;;;;;1.38;0.70;;;8.70;99.90;;;;;;5073488;28;20025;-88
2023/12/23 09:06:02;;;;;;;2.65;0.60;;;8.00;99.90;;;;;;5030849;28;20030;-89
2023/12/23 09:08:28;;;;;;;1.85;0.80;;;8.10;99.90;;;;;;5052546;28;20021;-89
2023/12/23 09:10:55;;;;;;;0.85;0.63;;;8.70;99.90;;;;;;5048070;28;20048;-87
2023/12/23 09:13:21;;;;;;;1.75;0.60;;;8.70;99.90;;;;;;5046550;28;20010;-90
2023/12/23 09:15:54;;;;;;;1.58;0.60;;;8.70;99.90;;;;;;5044971;28;20028;-87
2023/12/23 09:18:20;;;;;;;0.65;0.40;;;8.80;99.90;;;;;;5064673;28;20037;-85
2023/12/23 09:20:47;;;;;;;1.70;0.70;;;9.40;99.90;;;;;;5049097;28;20030;-88
2023/12/23 09:23:13;;;;;;;1.10;0.68;;;8.80;99.90;;;;;;5046016;28;20036;-87
2023/12/23 09:25:45;;;;;;;1.05;0.57;;;8.70;99.90;;;;;;5049752;28;20029;-88
2023/12/23 09:28:13;;;;;;;0.95;0.60;;;9.00;99.90;;;;;;5065126;28;20022;-90
2023/12/23 09:31:30;;;;;;;2.25;0.55;;;8.70;99.90;;;;;;5048881;28;20029;-87
2023/12/23 09:34:21;;;;;;;2.80;0.90;;;8.60;99.90;;;;;;5048367;28;20023;-88
2023/12/23 09:36:55;;;;;;;1.67;0.60;;;8.70;99.90;;;;;;5055585;28;20081;-86
2023/12/23 09:39:21;;;;;;;1.08;0.60;;;8.90;99.90;;;;;;5045679;28;20442;-88
2023/12/23 09:41:47;;;;;;;2.72;0.90;;;9.30;99.90;;;;;;5042447;28;20044;-90
2023/12/23 09:44:16;;;;;;;2.30;0.90;;;9.10;99.90;;;;;;5045603;28;20029;-90
2023/12/23 09:46:42;;;;;;;1.05;0.73;;;8.80;99.90;;;;;;5063825;28;20018;-88
2023/12/23 09:49:08;;;;;;;0.88;0.43;;;8.80;99.90;;;;;;5062258;28;20048;-87
2023/12/23 09:51:34;;;;;;;2.75;0.60;;;10.50;99.90;;;;;;5047305;28;20029;-87
2023/12/23 09:54:03;;;;;;;3.55;1.20;;;8.80;99.90;;;;;;5045665;28;20061;-87
2023/12/23 09:56:32;;;;;;;2.83;0.75;;;9.60;99.90;;;;;;5044644;28;20026;-87
2023/12/23 09:58:58;;;;;;;2.10;0.95;;;8.90;99.90;;;;;;5042527;28;20032;-88
2023/12/23 10:01:24;;;;;;;1.50;0.63;;;8.80;99.90;;;;;;5042564;28;20089;-88
2023/12/23 10:03:51;;;;;;;3.08;0.98;;;8.90;99.90;;;;;;5053520;28;20036;-89
2023/12/23 10:06:18;;;;;;;2.05;0.70;;;8.90;99.90;;;;;;5062883;28;20088;-88
2023/12/23 10:08:45;;;;;;;2.47;0.50;;;10.30;99.90;;;;;;5047982;28;20037;-88
2023/12/23 10:11:13;;;;;;;1.48;0.77;;;9.10;99.90;;;;;;5051330;28;20021;-88
2023/12/23 11:42:57;;;;;;;0.95;0.65;;;9.50;99.90;;;;;;5062761;28;20025;-89
2023/12/23 11:45:28;;;;;;;1.08;0.50;;;9.50;99.90;;;;;;5047361;28;20013;-90
2023/12/23 11:47:55;;;;;;;2.60;0.70;;;9.60;99.90;;;;;;5060430;28;20037;-88
2023/12/23 11:50:21;;;;;;;3.42;1.25;;;10.60;99.90;;;;;;5053031;28;20060;-87
2023/12/23 11:52:48;;;;;;;5.88;2.05;;;9.30;99.90;;;;;;5067765;28;20018;-89
2023/12/23 11:55:17;;;;;;;2.80;0.90;;;10.40;99.90;;;;;;5065756;28;20033;-88
2023/12/23 11:57:44;;;;;;;1.85;0.98;;;8.20;99.90;;;;;;5051532;28;20017;-88
2023/12/23 12:00:10;;;;;;;2.67;1.17;;;10.70;99.90;;;;;;5045667;28;20030;-88
2023/12/23 12:02:46;;;;;;;2.92;1.33;;;9.10;99.90;;;;;;5066704;28;20006;-91
2023/12/23 12:05:13;;;;;;;2.95;1.40;;;10.10;99.90;;;;;;5062294;28;20022;-89
2023/12/23 14:17:27;;;;;;;2.65;0.90;;;9.30;99.90;;;;;;5034014;28;20045;-86
2023/12/23 14:33:54;;;;;;;2.70;0.90;;;9.50;99.90;;;;;;5015273;28;20037;-84
2023/12/23 19:12:47;;;;;;;4.28;1.50;;;9.50;99.90;;;;;;5362821;23;20037;-83
2023/12/23 19:15:36;;;;;;;5.72;2.13;;;9.40;99.90;;;;;;5053113;28;20037;-84
2023/12/23 19:18:11;;;;;;;4.20;2.13;;;11.30;99.90;;;;;;5038649;28;20041;-81
2023/12/23 19:20:40;;;;;;;3.72;1.30;;;9.50;99.90;;;;;;5043160;28;20045;-85
2023/12/23 19:23:10;;;;;;;2.13;1.20;;;9.80;99.90;;;;;;5025941;28;20022;-80
2023/12/23 19:32:44;;;;;;;3.80;1.65;;;9.50;99.90;;;;;;5031124;28;20025;-82
2023/12/23 19:35:44;;;;;;;4.57;2.17;;;8.40;99.90;;;;;;5047944;28;20041;-80
2023/12/23 19:39:18;;;;;;;6.10;2.05;;;10.20;99.90;;;;;;5028762;28;20070;-82
2023/12/23 19:41:47;;;;;;;6.78;2.65;;;9.60;99.90;;;;;;5054182;28;20477;-82
2023/12/23 19:44:32;;;;;;;4.65;1.52;;;9.60;99.90;;;;;;5030056;28;20046;-82
2023/12/23 19:47:14;;;;;;;3.42;1.80;;;9.50;99.90;;;;;;5036076;28;20033;-82
2023/12/23 19:50:07;;;;;;;3.50;1.80;;;9.10;99.90;;;;;;5036479;28;20084;-82
2023/12/23 19:52:53;;;;;;;3.83;1.80;;;9.60;99.90;;;;;;5035557;28;20050;-82
2023/12/23 19:55:30;;;;;;;3.78;1.77;;;11.20;99.90;;;;;;5044687;28;20178;-81
2023/12/23 20:02:02;;;;;;;4.30;1.63;;;9.60;99.90;;;;;;5035586;28;20053;-82
2023/12/23 20:04:52;;;;;;;3.15;1.65;;;8.70;99.90;;;;;;5029115;28;20029;-83
2023/12/23 20:07:25;;;;;;;3.10;1.60;;;8.60;99.90;;;;;;5032158;28;20026;-82
2023/12/23 20:09:58;;;;;;;4.72;1.70;;;9.70;99.90;;;;;;5023628;28;20066;-81
2023/12/23 20:13:25;;;;;;;;;;;;;;;;;;;;;
2023/12/23 20:16:19;;;;;;;3.03;1.67;;;9.60;99.90;;;;;;5015689;28;20504;-81
2023/12/23 20:22:57;;;;;;;4.18;1.70;;;9.60;99.90;;;;;;5011723;28;20049;-81
2023/12/23 20:25:32;;;;;;;5.20;2.33;;;9.50;99.90;;;;;;5014612;28;20496;-81
2023/12/23 20:28:03;;;;;;;8.57;2.97;;;9.50;99.90;;;;;;5031396;28;20014;-82
2023/12/23 20:30:41;;;;;;;3.92;1.55;;;9.00;99.90;;;;;;5033670;28;20049;-81
2023/12/23 20:33:13;;;;;;;5.00;1.92;;;11.00;99.90;;;;;;5033006;28;20064;-81
2023/12/23 20:36:45;;;;;;;;;;;;;;;;;;;;;
2023/12/23 20:39:23;;;;;;;3.80;1.83;;;9.60;99.90;;;;;;5015834;28;20029;-80
2023/12/23 20:41:49;;;;;;;4.07;1.50;;;7.90;99.90;;;;;;5021521;28;20089;-81
2023/12/23 20:44:43;;;;;;;4.38;1.77;;;8.10;99.90;;;;;;5037182;28;20129;-80
2023/12/23 20:47:13;;;;;;;4.85;1.55;;;10.40;99.90;;;;;;5019690;28;20030;-79
2023/12/23 20:56:14;;;;;;;4.00;1.57;;;10.00;99.90;;;;;;4923462;29;20052;-80
2023/12/23 20:59:33;;;;;;;8.57;1.60;;;9.70;99.90;;;;;;4927965;29;20040;-80
2023/12/23 21:02:12;;;;;;;5.30;2.55;;;9.80;99.90;;;;;;4956923;28;20039;-81
2023/12/23 21:04:40;;;;;;;5.28;1.67;;;9.70;99.90;;;;;;4933395;28;20047;-82
2023/12/23 21:07:42;;;;;;;3.92;1.90;;;9.60;99.90;;;;;;5031387;28;20018;-80
2023/12/23 21:21:38;;;;;;;2.58;1.50;;;9.70;99.90;;;;;;4864004;29;20061;-84
2023/12/23 21:33:38;;;;;;;4.13;1.60;;;9.60;99.90;;;;;;5222347;23;20061;-79
2023/12/23 21:36:06;;;;;;;4.40;2.00;;;10.10;99.90;;;;;;5026222;28;20036;-81
2023/12/23 21:38:32;;;;;;;3.45;1.70;;;8.40;99.90;;;;;;5014365;28;20033;-81
2023/12/23 21:41:02;;;;;;;3.58;1.73;;;10.80;99.90;;;;;;5011643;28;20081;-81
2023/12/23 21:43:33;;;;;;;2.45;1.42;;;9.50;99.90;;;;;;5002115;28;20114;-80
2023/12/23 21:46:05;;;;;;;3.35;1.52;;;9.60;99.90;;;;;;5001334;28;20026;-80
2023/12/23 21:48:31;;;;;;;3.65;1.75;;;9.70;99.90;;;;;;5001495;28;20025;-82
2023/12/23 21:50:57;;;;;;;4.53;1.67;;;9.70;99.90;;;;;;5000301;28;20106;-80
2023/12/23 21:53:27;;;;;;;3.65;1.27;;;10.00;99.90;;;;;;4999971;28;20030;-79
2023/12/23 21:55:54;;;;;;;3.42;1.60;;;;;;;;;;4997461;28;20026;-80
2023/12/23 21:58:22;;;;;;;4.15;1.95;;;9.70;99.90;;;;;;5013489;28;20027;-81
2023/12/23 22:00:49;;;;;;;4.88;1.73;;;9.20;99.90;;;;;;4997189;28;20037;-82
2023/12/23 22:03:16;;;;;;;3.38;1.73;;;9.70;99.90;;;;;;4994953;28;20090;-81
2023/12/23 22:05:47;;;;;;;3.33;1.67;;;9.70;99.90;;;;;;4998900;28;20030;-81
2023/12/23 22:08:35;;;;;;;2.92;1.52;;;9.90;99.90;;;;;;4996733;28;20037;-80
2023/12/23 22:11:07;;;;;;;4.35;1.92;;;9.70;99.90;;;;;;5000144;28;20424;-79
2023/12/23 22:13:36;;;;;;;3.65;1.80;;;9.30;99.90;;;;;;5013644;28;20033;-80
2023/12/23 22:16:03;;;;;;;4.22;1.90;;;9.60;99.90;;;;;;5004512;28;20037;-80
2023/12/23 22:18:32;;;;;;;3.20;1.70;;;9.90;99.90;;;;;;5012533;28;20022;-80
2023/12/23 22:21:12;;;;;;;4.32;1.70;;;9.80;99.90;;;;;;5001016;28;20023;-81
2023/12/23 22:35:03;;;;;;;3.13;1.65;;;9.80;99.90;;;;;;4862401;29;20070;-81
2023/12/23 22:37:36;;;;;;;3.47;1.73;;;8.90;99.90;;;;;;4950793;28;20113;-82
2023/12/23 22:40:06;;;;;;;3.75;1.50;;;9.80;99.90;;;;;;5005127;28;20046;-81
2023/12/23 22:42:39;;;;;;;5.32;1.80;;;9.30;99.90;;;;;;5012175;28;20523;-81